Startpagina
METAR-TAF:

METAR-TAF

Vliegvelden :

Jos, Nigeria

breedte: 09-52N, lengte: 008-54E, hoogte: 1295 m

Actueel weer

Dit bericht is 4 uur en het 58 minuten geleden gemaakt, om 04:00 UTC
Wind 8 kt uit het oosten
Temperatuur 14°C
Vochtigheid 33%
Druk 1019 hPa
Zicht 10 km of meer
geen wolken onder 1500 m en geen cumulonimbus

METAR: DNJO 200400Z 09008KT CAVOK 14/M02 Q1019

Tijdstip: 09:58 (08:58 UTC)

Verwachting

Dit bericht is 9 uur en het 58 minuten geleden gemaakt, om 23:00 UTC
Verwachting geldig van 20 om 00 UTC tot 21 om 06 UTC
Wind 4 kt uit het oosten
Zicht 10 km of meer
geen wolken onder 1500 m en geen cumulonimbus
Tijdelijke
van 20 om 01 UTC tot 20 om 03 UTC
Wind 15 kt uit het noordnoordoosten
Kans 30% :
Tijdelijke
van 20 om 03 UTC tot 20 om 09 UTC
Zicht: 5000 m
Heiigheid

TAF: DNJO 192300Z 2000/2106 09004KT CAVOK TEMPO 2001/2003 03015KT PROB30 TEMPO 2003/2009 5000 HZ

Waarnemingen en weersverwachtingen van meer dan 4000 vliegvelden (METAR en TAF).

De beschikbare stations zijn de gele en rode punten op de kaart.

Ga met uw muis naar het station om de naam te zien.

Klik dan om waarnemingen en weersverwachtingen te zien.

kaart wijzigen: klik op de groene knoppen met een zwart kruis om in te zoomen, op de groene knop met een streepje om uit te zoomen of op de groene pijlen voor aangrenzende kaarten.


METAR-TAF: